Time;durP1;ratioP1;P1;durP2;ratioP2;P2;SDS_P1;SDS_P2;PMS_P1;PMS_P2;Temp;Humidity;BMP_temperature;BMP_pressure;BME280_temperature;BME280_humidity;BME280_pressure;Samples;Min_cycle;Max_cycle;Signal;HPM_P1;HPM_P2
2023/05/18 00:01:02;;;;;;;0.23;0.13;;;;;;;;;;5017116;28;58866;-58
2023/05/18 00:03:28;;;;;;;0.13;0.10;;;;;;;;;;5015813;28;58664;-58
2023/05/18 00:05:56;;;;;;;0.40;0.25;;;;;;;;;;5017256;28;58565;-59
2023/05/18 00:08:21;;;;;;;1.45;0.30;;;;;;;;;;5015279;28;58551;-59
2023/05/18 00:10:46;;;;;;;0.23;0.23;;;;;;;;;;5018174;28;59172;-62
2023/05/18 00:13:12;;;;;;;0.25;0.20;;;;;;;;;;5020628;28;58658;-61
2023/05/18 00:15:37;;;;;;;0.40;0.30;;;;;;;;;;5024135;28;58633;-60
2023/05/18 00:18:02;;;;;;;0.45;0.43;;;;;;;;;;5023583;28;58198;-60
2023/05/18 00:20:28;;;;;;;0.43;0.20;;;;;;;;;;5022090;28;59912;-59
2023/05/18 00:22:53;;;;;;;2.08;0.30;;;;;;;;;;5025208;28;58562;-59
2023/05/18 00:25:18;;;;;;;0.20;0.10;;;;;;;;;;5023237;28;58431;-60
2023/05/18 00:27:43;;;;;;;1.27;0.70;;;;;;;;;;5025872;28;59185;-60
2023/05/18 00:30:09;;;;;;;0.85;0.45;;;;;;;;;;5021849;28;58548;-60
2023/05/18 00:32:34;;;;;;;0.20;0.20;;;;;;;;;;5020728;28;58832;-60
2023/05/18 00:34:59;;;;;;;0.80;0.50;;;;;;;;;;5023298;28;58852;-60
2023/05/18 00:37:24;;;;;;;0.30;0.20;;;;;;;;;;5024214;28;59161;-60
2023/05/18 00:39:50;;;;;;;0.40;0.20;;;;;;;;;;5024012;28;59726;-62
2023/05/18 00:42:15;;;;;;;0.17;0.17;;;;;;;;;;5021471;28;58482;-61
2023/05/18 00:44:40;;;;;;;0.93;0.30;;;;;;;;;;5022983;28;58726;-62
2023/05/18 00:47:05;;;;;;;0.20;0.20;;;;;;;;;;5023989;28;59092;-62
2023/05/18 00:49:30;;;;;;;0.20;0.20;;;;;;;;;;5022105;28;59505;-62
2023/05/18 00:51:56;;;;;;;0.55;0.20;;;;;;;;;;5023698;28;58253;-62
2023/05/18 00:54:21;;;;;;;0.77;0.40;;;;;;;;;;5020536;28;58366;-62
2023/05/18 00:56:47;;;;;;;0.50;0.50;;;;;;;;;;5017948;28;58568;-61
2023/05/18 00:59:12;;;;;;;0.20;0.20;;;;;;;;;;5024480;28;58426;-62
2023/05/18 01:01:42;;;;;;;0.32;0.20;;;;;;;;;;5021471;28;58722;-61
2023/05/18 01:04:08;;;;;;;0.40;0.38;;;;;;;;;;5021373;28;58722;-61
2023/05/18 01:06:34;;;;;;;0.20;0.20;;;;;;;;;;5025090;28;59091;-62
2023/05/18 01:09:01;;;;;;;0.20;0.15;;;;;;;;;;5018996;28;58700;-62
2023/05/18 01:11:36;;;;;;;0.32;0.17;;;;;;;;;;5022265;28;58384;-59
2023/05/18 01:14:01;;;;;;;0.28;0.28;;;;;;;;;;5014362;28;59345;-59
2023/05/18 01:16:32;;;;;;;0.35;0.30;;;;;;;;;;5020910;28;58943;-59
2023/05/18 01:19:01;;;;;;;0.50;0.10;;;;;;;;;;5021871;28;58390;-59
2023/05/18 01:21:41;;;;;;;0.40;0.40;;;;;;;;;;5020151;28;58433;-59
2023/05/18 01:24:20;;;;;;;0.75;0.35;;;;;;;;;;5020510;28;58977;-59
2023/05/18 01:26:46;;;;;;;0.40;0.20;;;;;;;;;;5023029;28;58378;-58
2023/05/18 01:29:12;;;;;;;0.30;0.30;;;;;;;;;;5022127;28;58728;-59
2023/05/18 01:31:38;;;;;;;0.85;0.47;;;;;;;;;;5022046;28;58835;-59
2023/05/18 01:34:03;;;;;;;0.35;0.20;;;;;;;;;;5015417;28;59933;-59
2023/05/18 01:36:30;;;;;;;0.20;0.20;;;;;;;;;;5023082;28;58532;-58
2023/05/18 01:38:56;;;;;;;0.30;0.20;;;;;;;;;;5024398;28;58850;-58
2023/05/18 01:41:25;;;;;;;0.88;0.30;;;;;;;;;;5020301;28;60025;-59
2023/05/18 01:44:11;;;;;;;0.20;0.20;;;;;;;;;;5022485;28;58086;-59
2023/05/18 01:46:45;;;;;;;0.30;0.28;;;;;;;;;;5027155;28;60097;-58
2023/05/18 01:49:22;;;;;;;0.40;0.40;;;;;;;;;;5026430;28;58711;-59
2023/05/18 01:51:48;;;;;;;0.35;0.22;;;;;;;;;;5025096;28;58634;-59
2023/05/18 01:54:15;;;;;;;0.65;0.10;;;;;;;;;;5024990;28;59034;-59
2023/05/18 01:56:41;;;;;;;1.45;0.17;;;;;;;;;;5018873;28;58812;-58
2023/05/18 01:59:07;;;;;;;0.57;0.20;;;;;;;;;;5027355;28;58555;-57
2023/05/18 02:01:32;;;;;;;0.30;0.30;;;;;;;;;;5024829;28;59265;-59
2023/05/18 02:03:57;;;;;;;0.20;0.17;;;;;;;;;;5024018;28;58596;-60
2023/05/18 02:06:22;;;;;;;0.20;0.20;;;;;;;;;;5020790;28;59039;-59
2023/05/18 02:08:47;;;;;;;0.20;0.10;;;;;;;;;;5022941;28;58795;-59
2023/05/18 02:11:13;;;;;;;0.40;0.30;;;;;;;;;;5028055;28;58894;-60
2023/05/18 02:13:38;;;;;;;0.47;0.10;;;;;;;;;;5022545;28;58627;-59
2023/05/18 02:16:03;;;;;;;0.30;0.30;;;;;;;;;;5021163;28;59314;-59
2023/05/18 02:18:28;;;;;;;0.67;0.37;;;;;;;;;;5024230;28;58677;-58
2023/05/18 02:20:57;;;;;;;0.67;0.10;;;;;;;;;;5025232;28;58372;-59
2023/05/18 02:23:23;;;;;;;0.10;0.10;;;;;;;;;;5022377;28;58536;-59
2023/05/18 02:25:48;;;;;;;0.20;0.20;;;;;;;;;;5026140;28;58802;-59
2023/05/18 02:28:13;;;;;;;0.10;0.10;;;;;;;;;;5020009;28;58847;-59
2023/05/18 02:30:38;;;;;;;0.10;0.10;;;;;;;;;;5025098;28;58203;-59
2023/05/18 02:33:03;;;;;;;0.43;0.32;;;;;;;;;;5024327;28;58572;-58
2023/05/18 02:35:28;;;;;;;0.57;0.47;;;;;;;;;;5023607;28;58752;-60
2023/05/18 02:37:54;;;;;;;0.10;0.10;;;;;;;;;;5019497;28;58395;-60
2023/05/18 02:40:19;;;;;;;0.22;0.20;;;;;;;;;;5025417;28;58907;-59
2023/05/18 02:42:45;;;;;;;0.10;0.10;;;;;;;;;;5024858;28;58561;-58
2023/05/18 02:45:10;;;;;;;0.30;0.30;;;;;;;;;;5026063;28;58487;-60
2023/05/18 02:47:35;;;;;;;0.20;0.20;;;;;;;;;;5018233;28;58977;-59
2023/05/18 02:50:00;;;;;;;0.47;0.20;;;;;;;;;;5026449;28;58632;-60
2023/05/18 02:52:26;;;;;;;0.60;0.10;;;;;;;;;;5022862;28;58560;-60
2023/05/18 02:54:53;;;;;;;0.20;0.20;;;;;;;;;;5025928;28;58518;-59
2023/05/18 02:57:18;;;;;;;0.35;0.30;;;;;;;;;;5023617;28;58448;-60
2023/05/18 02:59:43;;;;;;;0.60;0.20;;;;;;;;;;5021961;28;58767;-60
2023/05/18 03:02:13;;;;;;;0.35;0.30;;;;;;;;;;5023914;28;58674;-59
2023/05/18 03:04:38;;;;;;;0.20;0.15;;;;;;;;;;5022989;28;58676;-60
2023/05/18 03:07:03;;;;;;;0.55;0.17;;;;;;;;;;5023666;28;59064;-60
2023/05/18 03:09:28;;;;;;;0.40;0.40;;;;;;;;;;5017330;28;59117;-60
2023/05/18 03:11:53;;;;;;;0.25;0.25;;;;;;;;;;5026167;28;58480;-60
2023/05/18 03:14:19;;;;;;;0.10;0.10;;;;;;;;;;5025439;28;58548;-59
2023/05/18 03:16:44;;;;;;;0.20;0.20;;;;;;;;;;5020143;28;58795;-60
2023/05/18 03:19:09;;;;;;;0.28;0.20;;;;;;;;;;5022165;28;58404;-60
2023/05/18 03:21:35;;;;;;;0.30;0.23;;;;;;;;;;5026122;28;58530;-59
2023/05/18 03:24:00;;;;;;;0.33;0.10;;;;;;;;;;5027817;28;58341;-59
2023/05/18 03:26:29;;;;;;;0.10;0.10;;;;;;;;;;5022154;28;59080;-59
2023/05/18 03:28:54;;;;;;;0.13;0.10;;;;;;;;;;5024818;28;58498;-59
2023/05/18 03:31:20;;;;;;;0.40;0.30;;;;;;;;;;5022321;28;58039;-60
2023/05/18 03:33:45;;;;;;;0.20;0.20;;;;;;;;;;5026683;28;58795;-59
2023/05/18 03:36:11;;;;;;;0.25;0.10;;;;;;;;;;5025923;28;58555;-60
2023/05/18 03:38:37;;;;;;;0.80;0.30;;;;;;;;;;5028406;28;59095;-60
2023/05/18 03:41:02;;;;;;;0.43;0.20;;;;;;;;;;5022025;28;58889;-60
2023/05/18 03:43:28;;;;;;;0.37;0.20;;;;;;;;;;5026957;28;58997;-59
2023/05/18 03:45:53;;;;;;;0.10;0.10;;;;;;;;;;5024240;28;59013;-59
2023/05/18 03:48:19;;;;;;;0.30;0.30;;;;;;;;;;5027251;28;58747;-59
2023/05/18 03:50:45;;;;;;;0.28;0.28;;;;;;;;;;5023182;28;58621;-59
2023/05/18 03:53:10;;;;;;;0.32;0.22;;;;;;;;;;5025876;28;59504;-59
2023/05/18 03:55:35;;;;;;;0.75;0.30;;;;;;;;;;5025827;28;59744;-59
2023/05/18 03:58:02;;;;;;;0.13;0.10;;;;;;;;;;5021327;28;58833;-59
2023/05/18 04:00:27;;;;;;;0.85;0.30;;;;;;;;;;5017037;28;58968;-60
2023/05/18 04:02:52;;;;;;;0.17;0.17;;;;;;;;;;5022224;28;58477;-58
2023/05/18 04:05:17;;;;;;;0.13;0.13;;;;;;;;;;5025588;28;58421;-59
2023/05/18 04:07:45;;;;;;;0.15;0.13;;;;;;;;;;5025338;28;58244;-59
2023/05/18 04:10:10;;;;;;;0.20;0.20;;;;;;;;;;5023655;28;58771;-59
2023/05/18 04:12:36;;;;;;;0.10;0.10;;;;;;;;;;5013675;28;58556;-60
2023/05/18 04:15:02;;;;;;;1.00;0.50;;;;;;;;;;5022327;28;58413;-59
2023/05/18 04:17:28;;;;;;;0.30;0.17;;;;;;;;;;5027558;28;58904;-59
2023/05/18 04:19:53;;;;;;;0.20;0.20;;;;;;;;;;5025509;28;58541;-60
2023/05/18 04:22:18;;;;;;;0.10;0.10;;;;;;;;;;5023155;28;58306;-60
2023/05/18 04:24:47;;;;;;;0.10;0.10;;;;;;;;;;5018710;28;58266;-59
2023/05/18 04:27:12;;;;;;;0.10;0.10;;;;;;;;;;5013614;28;59164;-60
2023/05/18 04:29:38;;;;;;;0.23;0.20;;;;;;;;;;5018258;28;58483;-59
2023/05/18 04:32:03;;;;;;;0.10;0.10;;;;;;;;;;5012688;28;60156;-60
2023/05/18 04:34:30;;;;;;;0.40;0.35;;;;;;;;;;5019789;28;58446;-59
2023/05/18 04:36:57;;;;;;;0.20;0.20;;;;;;;;;;5016187;28;58365;-60
2023/05/18 04:39:23;;;;;;;0.43;0.10;;;;;;;;;;5016626;28;58496;-59
2023/05/18 04:41:49;;;;;;;0.20;0.20;;;;;;;;;;5020509;28;58678;-60
2023/05/18 04:44:16;;;;;;;0.30;0.20;;;;;;;;;;5014802;28;58635;-60
2023/05/18 04:46:42;;;;;;;0.10;0.08;;;;;;;;;;5018438;28;58747;-60
2023/05/18 04:49:08;;;;;;;0.10;0.10;;;;;;;;;;5015104;28;58636;-60
2023/05/18 04:51:33;;;;;;;0.10;0.08;;;;;;;;;;5024279;28;58893;-60
2023/05/18 04:53:59;;;;;;;0.30;0.20;;;;;;;;;;5015257;28;58776;-59
2023/05/18 04:56:24;;;;;;;0.40;0.20;;;;;;;;;;5017965;28;58613;-60
2023/05/18 04:58:50;;;;;;;0.22;0.22;;;;;;;;;;5015499;28;58257;-60
2023/05/18 05:01:15;;;;;;;0.30;0.20;;;;;;;;;;5013239;28;58365;-60
2023/05/18 05:03:41;;;;;;;0.10;0.10;;;;;;;;;;5013408;28;58425;-60
2023/05/18 05:06:06;;;;;;;0.63;0.28;;;;;;;;;;5017051;28;58432;-59
2023/05/18 05:08:31;;;;;;;0.10;0.10;;;;;;;;;;5014409;28;58213;-60
2023/05/18 05:10:56;;;;;;;0.40;0.40;;;;;;;;;;5014813;28;58787;-60
2023/05/18 05:13:22;;;;;;;0.20;0.10;;;;;;;;;;5015332;28;58313;-60
2023/05/18 05:15:47;;;;;;;0.17;0.17;;;;;;;;;;5012466;28;58457;-59
2023/05/18 05:18:12;;;;;;;0.47;0.47;;;;;;;;;;5011077;28;59075;-60
2023/05/18 05:20:37;;;;;;;0.10;0.10;;;;;;;;;;5019257;28;58622;-59
2023/05/18 05:23:02;;;;;;;0.40;0.40;;;;;;;;;;5020125;28;59050;-59
2023/05/18 05:25:28;;;;;;;0.30;0.20;;;;;;;;;;5016346;28;58566;-59
2023/05/18 05:27:53;;;;;;;0.30;0.17;;;;;;;;;;5014857;28;58502;-60
2023/05/18 05:30:18;;;;;;;0.13;0.13;;;;;;;;;;5019927;28;58953;-60
2023/05/18 05:32:43;;;;;;;0.40;0.38;;;;;;;;;;5016546;28;58595;-59
2023/05/18 05:35:08;;;;;;;0.20;0.10;;;;;;;;;;5021484;28;58635;-60
2023/05/18 05:37:34;;;;;;;0.50;0.20;;;;;;;;;;5020400;28;59358;-59
2023/05/18 05:39:59;;;;;;;0.17;0.10;;;;;;;;;;5017888;28;58393;-59
2023/05/18 05:42:25;;;;;;;2.40;0.40;;;;;;;;;;5019562;28;58910;-60
2023/05/18 05:44:50;;;;;;;0.10;0.10;;;;;;;;;;5014449;28;58813;-60
2023/05/18 05:47:15;;;;;;;0.20;0.10;;;;;;;;;;5017791;28;58205;-60
2023/05/18 05:49:41;;;;;;;0.43;0.35;;;;;;;;;;5025544;28;58814;-59
2023/05/18 05:52:06;;;;;;;0.20;0.20;;;;;;;;;;5019812;28;58584;-60
2023/05/18 05:54:31;;;;;;;0.93;0.17;;;;;;;;;;5021149;28;58575;-60
2023/05/18 05:56:56;;;;;;;0.23;0.23;;;;;;;;;;5022025;28;58879;-59
2023/05/18 05:59:21;;;;;;;0.17;0.17;;;;;;;;;;5018186;28;58349;-58
2023/05/18 06:01:46;;;;;;;0.35;0.35;;;;;;;;;;5019452;28;60474;-60
2023/05/18 06:04:14;;;;;;;0.40;0.40;;;;;;;;;;5013360;28;58630;-59
2023/05/18 06:06:39;;;;;;;0.07;0.07;;;;;;;;;;5020652;28;58686;-59
2023/05/18 06:09:04;;;;;;;0.25;0.08;;;;;;;;;;5014949;28;58910;-60
2023/05/18 06:11:30;;;;;;;0.20;0.10;;;;;;;;;;5020854;28;58941;-60
2023/05/18 06:13:55;;;;;;;0.43;0.30;;;;;;;;;;5019557;28;58524;-60
2023/05/18 06:16:20;;;;;;;0.20;0.20;;;;;;;;;;5017156;28;58369;-59
2023/05/18 06:18:46;;;;;;;0.30;0.30;;;;;;;;;;5016894;28;58355;-60
2023/05/18 06:21:12;;;;;;;0.20;0.20;;;;;;;;;;5017405;28;58194;-60
2023/05/18 06:23:37;;;;;;;1.27;0.13;;;;;;;;;;5020049;28;58414;-60
2023/05/18 06:26:02;;;;;;;0.20;0.20;;;;;;;;;;5016358;28;58481;-59
2023/05/18 06:28:27;;;;;;;0.20;0.20;;;;;;;;;;5023930;28;59133;-60
2023/05/18 06:30:52;;;;;;;0.37;0.20;;;;;;;;;;5014662;28;58628;-60
2023/05/18 06:33:20;;;;;;;0.23;0.23;;;;;;;;;;5015027;28;58630;-60
2023/05/18 06:35:45;;;;;;;4.55;0.73;;;;;;;;;;5019837;28;58909;-60
2023/05/18 06:38:10;;;;;;;0.60;0.60;;;;;;;;;;5017451;28;58762;-59
2023/05/18 06:40:35;;;;;;;0.37;0.33;;;;;;;;;;5019486;28;59262;-60
2023/05/18 06:43:00;;;;;;;0.20;0.20;;;;;;;;;;5020900;28;58475;-59
2023/05/18 06:45:25;;;;;;;0.30;0.30;;;;;;;;;;5019764;28;58428;-60
2023/05/18 06:47:50;;;;;;;0.33;0.33;;;;;;;;;;5013975;28;58612;-59
2023/05/18 06:50:16;;;;;;;0.43;0.40;;;;;;;;;;5021315;28;58437;-59
2023/05/18 06:52:41;;;;;;;0.80;0.17;;;;;;;;;;5018549;28;58410;-59
2023/05/18 06:55:06;;;;;;;1.08;0.10;;;;;;;;;;5010594;28;58509;-59
2023/05/18 06:57:32;;;;;;;0.30;0.30;;;;;;;;;;5013915;28;58484;-58
2023/05/18 06:59:57;;;;;;;0.32;0.32;;;;;;;;;;5016402;28;58382;-60
2023/05/18 07:02:22;;;;;;;2.80;0.40;;;;;;;;;;5017326;28;58415;-60
2023/05/18 07:04:48;;;;;;;0.30;0.28;;;;;;;;;;5014215;28;58306;-58
2023/05/18 07:07:13;;;;;;;0.55;0.20;;;;;;;;;;5016204;28;58311;-59
2023/05/18 07:09:41;;;;;;;0.05;0.05;;;;;;;;;;5011964;28;58845;-58
2023/05/18 07:12:07;;;;;;;;;;;;;;;;;;5020320;28;58115;-59
2023/05/18 07:14:32;;;;;;;0.80;0.20;;;;;;;;;;5020474;28;58616;-60
2023/05/18 07:16:57;;;;;;;5.45;0.30;;;;;;;;;;5017105;28;58249;-60
2023/05/18 07:19:22;;;;;;;0.28;0.20;;;;;;;;;;5027030;28;58388;-59
2023/05/18 07:21:47;;;;;;;0.50;0.30;;;;;;;;;;5015712;28;59133;-59
2023/05/18 07:24:12;;;;;;;0.77;0.50;;;;;;;;;;5017076;28;58800;-59
2023/05/18 07:26:37;;;;;;;5.18;0.30;;;;;;;;;;5014466;28;58488;-59
2023/05/18 07:29:03;;;;;;;0.50;0.40;;;;;;;;;;5016711;28;58936;-58
2023/05/18 07:31:28;;;;;;;0.90;0.20;;;;;;;;;;5014172;28;58543;-59
2023/05/18 07:33:53;;;;;;;0.20;0.20;;;;;;;;;;5013832;28;58462;-60
2023/05/18 07:36:18;;;;;;;0.53;0.43;;;;;;;;;;5012734;28;58618;-60
2023/05/18 07:38:43;;;;;;;1.83;1.10;;;;;;;;;;5019364;28;58373;-57
2023/05/18 07:41:09;;;;;;;0.47;0.40;;;;;;;;;;5014752;28;58836;-59
2023/05/18 07:43:34;;;;;;;0.27;0.20;;;;;;;;;;5011790;28;58439;-59
2023/05/18 07:45:59;;;;;;;0.43;0.30;;;;;;;;;;5014056;28;58639;-59
2023/05/18 07:48:24;;;;;;;2.30;0.30;;;;;;;;;;5009895;28;59090;-60
2023/05/18 07:50:50;;;;;;;1.70;0.63;;;;;;;;;;5011816;28;58376;-59
2023/05/18 07:53:15;;;;;;;0.75;0.30;;;;;;;;;;5018360;28;58279;-59
2023/05/18 07:55:41;;;;;;;0.77;0.77;;;;;;;;;;5017778;28;58749;-60
2023/05/18 07:58:06;;;;;;;0.85;0.38;;;;;;;;;;5014479;28;57959;-59
2023/05/18 08:00:32;;;;;;;0.40;0.28;;;;;;;;;;5014902;28;58325;-59
2023/05/18 08:02:59;;;;;;;1.65;0.65;;;;;;;;;;5014254;28;58384;-59
2023/05/18 08:05:24;;;;;;;0.75;0.28;;;;;;;;;;5015524;28;58339;-58
2023/05/18 08:07:49;;;;;;;1.40;0.47;;;;;;;;;;5012340;28;58552;-59
2023/05/18 08:10:14;;;;;;;0.70;0.30;;;;;;;;;;5017941;28;58654;-58
2023/05/18 08:12:40;;;;;;;0.90;0.45;;;;;;;;;;5014838;28;58391;-58
2023/05/18 08:15:05;;;;;;;0.35;0.32;;;;;;;;;;5015802;28;58811;-59
2023/05/18 08:17:30;;;;;;;1.13;0.35;;;;;;;;;;5017692;28;58386;-60
2023/05/18 08:19:56;;;;;;;3.22;0.40;;;;;;;;;;5016711;28;58664;-59
2023/05/18 08:22:21;;;;;;;1.13;0.52;;;;;;;;;;5014573;28;58786;-60
2023/05/18 08:24:46;;;;;;;1.13;0.37;;;;;;;;;;5010910;28;58486;-59
2023/05/18 08:27:11;;;;;;;0.32;0.25;;;;;;;;;;5014696;28;58819;-59
2023/05/18 08:29:36;;;;;;;2.53;0.20;;;;;;;;;;5022317;28;59214;-60
2023/05/18 08:32:02;;;;;;;2.97;1.13;;;;;;;;;;5015202;28;59053;-60
2023/05/18 08:34:28;;;;;;;1.83;0.82;;;;;;;;;;5015662;28;58890;-57
2023/05/18 08:36:54;;;;;;;0.98;0.20;;;;;;;;;;5014280;28;58447;-60
2023/05/18 08:39:21;;;;;;;2.47;0.40;;;;;;;;;;5013189;28;58251;-59
2023/05/18 08:41:49;;;;;;;2.15;0.40;;;;;;;;;;5016374;28;59466;-59
2023/05/18 08:44:17;;;;;;;3.63;1.45;;;;;;;;;;5016603;28;58730;-59
2023/05/18 08:46:47;;;;;;;0.27;0.23;;;;;;;;;;5015236;28;59216;-59
2023/05/18 08:49:13;;;;;;;5.57;0.70;;;;;;;;;;5014968;28;58505;-59
2023/05/18 08:51:39;;;;;;;0.43;0.28;;;;;;;;;;5019499;28;58348;-59
2023/05/18 08:54:05;;;;;;;0.40;0.40;;;;;;;;;;5012761;28;58457;-60
2023/05/18 08:56:32;;;;;;;0.73;0.30;;;;;;;;;;5016743;28;58634;-59
2023/05/18 08:58:57;;;;;;;0.40;0.35;;;;;;;;;;5020078;28;58101;-59
2023/05/18 09:01:28;;;;;;;0.40;0.25;;;;;;;;;;5020711;28;58354;-60
2023/05/18 09:03:55;;;;;;;0.93;0.30;;;;;;;;;;5021488;28;58275;-60
2023/05/18 09:06:23;;;;;;;1.20;0.65;;;;;;;;;;5013851;28;59069;-60
2023/05/18 09:08:49;;;;;;;2.63;0.47;;;;;;;;;;5016214;28;58911;-60
2023/05/18 09:11:15;;;;;;;0.52;0.30;;;;;;;;;;5016585;28;58298;-58
2023/05/18 09:13:42;;;;;;;0.65;0.40;;;;;;;;;;5022994;28;58492;-59
2023/05/18 09:16:07;;;;;;;2.15;0.70;;;;;;;;;;5024792;28;58354;-61
2023/05/18 09:18:32;;;;;;;0.53;0.20;;;;;;;;;;5018373;28;58676;-59
2023/05/18 09:20:57;;;;;;;1.02;0.55;;;;;;;;;;5020634;28;58438;-61
2023/05/18 09:23:22;;;;;;;2.35;0.60;;;;;;;;;;5022652;28;58643;-60
2023/05/18 09:25:51;;;;;;;6.35;0.57;;;;;;;;;;5017700;28;58418;-59
2023/05/18 09:28:26;;;;;;;4.88;0.77;;;;;;;;;;5016568;28;58390;-59
2023/05/18 09:30:52;;;;;;;7.45;0.90;;;;;;;;;;5015804;28;59224;-61
2023/05/18 09:33:20;;;;;;;4.00;0.50;;;;;;;;;;5026552;28;59137;-60
2023/05/18 09:35:45;;;;;;;2.65;0.40;;;;;;;;;;5023836;28;59423;-58
2023/05/18 09:38:12;;;;;;;3.20;0.43;;;;;;;;;;5028447;28;59256;-56
2023/05/18 09:40:42;;;;;;;1.27;0.57;;;;;;;;;;5026733;28;58509;-58
2023/05/18 09:43:07;;;;;;;1.95;0.95;;;;;;;;;;5025534;28;58517;-62
2023/05/18 09:45:32;;;;;;;1.87;0.70;;;;;;;;;;5026078;28;58483;-61
2023/05/18 09:47:58;;;;;;;2.95;0.68;;;;;;;;;;5024450;28;59368;-59
2023/05/18 09:50:23;;;;;;;1.50;0.50;;;;;;;;;;5027847;28;58370;-61
2023/05/18 09:52:49;;;;;;;4.18;1.02;;;;;;;;;;5024700;28;58481;-60
2023/05/18 09:55:14;;;;;;;1.02;0.68;;;;;;;;;;5025275;28;58563;-59
2023/05/18 09:57:41;;;;;;;1.17;0.30;;;;;;;;;;5024256;28;58389;-62
2023/05/18 10:00:09;;;;;;;1.20;0.47;;;;;;;;;;5026617;28;58655;-61
2023/05/18 10:02:34;;;;;;;;;;;;;;;;;;5024536;28;58507;-60
2023/05/18 10:05:00;;;;;;;1.70;0.47;;;;;;;;;;5026007;28;58205;-61
2023/05/18 10:07:25;;;;;;;2.10;0.63;;;;;;;;;;5023814;28;58425;-60
2023/05/18 10:10:00;;;;;;;1.13;0.70;;;;;;;;;;5024237;28;58378;-60
2023/05/18 10:12:25;;;;;;;5.93;0.70;;;;;;;;;;5025427;28;58865;-66
2023/05/18 10:14:50;;;;;;;0.82;0.30;;;;;;;;;;5024559;28;58402;-65
2023/05/18 10:17:16;;;;;;;11.50;1.30;;;;;;;;;;5025427;28;58365;-65
2023/05/18 10:19:41;;;;;;;1.60;0.50;;;;;;;;;;5024965;28;59485;-57
2023/05/18 10:22:07;;;;;;;2.53;1.48;;;;;;;;;;5022862;28;58605;-57
2023/05/18 10:24:34;;;;;;;3.83;0.77;;;;;;;;;;5025089;28;58883;-59
2023/05/18 10:27:00;;;;;;;3.35;0.55;;;;;;;;;;5024469;28;58754;-59
2023/05/18 10:29:26;;;;;;;0.95;0.50;;;;;;;;;;5029624;28;58714;-58
2023/05/18 10:31:52;;;;;;;2.28;0.50;;;;;;;;;;5023285;28;59147;-60
2023/05/18 10:34:19;;;;;;;5.78;1.13;;;;;;;;;;5017967;28;58743;-59
2023/05/18 10:36:44;;;;;;;3.53;0.90;;;;;;;;;;5019308;28;58376;-61
2023/05/18 10:39:10;;;;;;;6.47;0.97;;;;;;;;;;5025442;28;59232;-59
2023/05/18 10:41:36;;;;;;;1.02;0.60;;;;;;;;;;5024755;28;58797;-63
2023/05/18 10:44:02;;;;;;;15.07;1.38;;;;;;;;;;5026760;28;58437;-63
2023/05/18 10:46:28;;;;;;;1.83;0.65;;;;;;;;;;5022294;28;58617;-59
2023/05/18 10:48:54;;;;;;;5.80;1.90;;;;;;;;;;5025365;28;58701;-59
2023/05/18 10:51:20;;;;;;;7.90;1.50;;;;;;;;;;5023497;28;58323;-61
2023/05/18 10:53:46;;;;;;;9.07;1.23;;;;;;;;;;5024470;28;58619;-60
2023/05/18 10:56:12;;;;;;;5.75;1.55;;;;;;;;;;5025459;28;58859;-61
2023/05/18 10:58:38;;;;;;;3.63;1.58;;;;;;;;;;5023735;28;58403;-61
2023/05/18 11:01:05;;;;;;;1.40;0.80;;;;;;;;;;5022294;28;59346;-61
2023/05/18 11:03:31;;;;;;;2.47;1.38;;;;;;;;;;5025481;28;59168;-60
2023/05/18 11:06:05;;;;;;;2.78;1.17;;;;;;;;;;5024925;28;58810;-61
2023/05/18 11:08:30;;;;;;;3.17;1.52;;;;;;;;;;5023049;28;58487;-64
2023/05/18 11:11:00;;;;;;;3.95;1.67;;;;;;;;;;5018901;28;60544;-60
2023/05/18 11:13:33;;;;;;;6.97;1.65;;;;;;;;;;5023245;28;58485;-67
2023/05/18 11:15:58;;;;;;;4.95;1.10;;;;;;;;;;5025904;28;58433;-64
2023/05/18 11:18:38;;;;;;;2.30;0.70;;;;;;;;;;5025608;28;58432;-67
2023/05/18 11:21:17;;;;;;;6.25;1.15;;;;;;;;;;5024343;28;58630;-61
2023/05/18 11:23:42;;;;;;;3.13;1.15;;;;;;;;;;5025400;28;58631;-60
2023/05/18 11:26:14;;;;;;;1.77;1.13;;;;;;;;;;5020204;28;58473;-60
2023/05/18 11:28:42;;;;;;;5.38;1.20;;;;;;;;;;5022795;28;58861;-60
2023/05/18 11:31:16;;;;;;;3.35;1.30;;;;;;;;;;5024247;28;58931;-60
2023/05/18 11:33:41;;;;;;;4.47;0.98;;;;;;;;;;5024558;28;58670;-66
2023/05/18 11:36:10;;;;;;;3.88;1.08;;;;;;;;;;5025740;28;58842;-64
2023/05/18 11:39:01;;;;;;;3.63;1.00;;;;;;;;;;5023721;28;59708;-62
2023/05/18 11:41:30;;;;;;;3.28;0.85;;;;;;;;;;5022226;28;59886;-62
2023/05/18 11:44:05;;;;;;;2.15;0.80;;;;;;;;;;5022186;28;58470;-61
2023/05/18 11:46:32;;;;;;;4.35;1.30;;;;;;;;;;5020754;28;59166;-61
2023/05/18 11:49:01;;;;;;;5.22;1.10;;;;;;;;;;5022404;28;58608;-62
2023/05/18 11:51:29;;;;;;;6.18;1.50;;;;;;;;;;5019346;28;59097;-62
2023/05/18 11:53:55;;;;;;;2.13;1.08;;;;;;;;;;5022024;28;58609;-61
2023/05/18 11:56:23;;;;;;;2.92;1.52;;;;;;;;;;5025155;28;58763;-60
2023/05/18 11:59:08;;;;;;;2.57;0.67;;;;;;;;;;5025890;28;63519;-61
2023/05/18 12:01:33;;;;;;;2.10;0.70;;;;;;;;;;5022933;28;58583;-61
2023/05/18 12:03:58;;;;;;;1.67;0.83;;;;;;;;;;5020993;28;58121;-60
2023/05/18 12:06:25;;;;;;;3.95;1.08;;;;;;;;;;5025801;28;58497;-61
2023/05/18 12:08:50;;;;;;;1.15;0.93;;;;;;;;;;5023345;28;58356;-59
2023/05/18 12:11:16;;;;;;;4.05;1.10;;;;;;;;;;5023702;28;58354;-60
2023/05/18 12:13:41;;;;;;;2.53;1.73;;;;;;;;;;5023709;28;58640;-60
2023/05/18 12:16:07;;;;;;;2.22;1.23;;;;;;;;;;5025279;28;58650;-62
2023/05/18 12:18:34;;;;;;;1.10;0.60;;;;;;;;;;5024354;28;58480;-63
2023/05/18 12:21:02;;;;;;;2.22;0.93;;;;;;;;;;5022445;28;58598;-63
2023/05/18 12:23:35;;;;;;;4.07;1.23;;;;;;;;;;5024234;28;58408;-67
2023/05/18 12:26:00;;;;;;;1.95;0.95;;;;;;;;;;5024371;28;58626;-69
2023/05/18 12:28:27;;;;;;;1.50;0.98;;;;;;;;;;5025031;28;58800;-66
2023/05/18 12:30:54;;;;;;;1.00;0.50;;;;;;;;;;5025509;28;58888;-65
2023/05/18 12:33:19;;;;;;;0.93;0.57;;;;;;;;;;5023703;28;58738;-67
2023/05/18 12:35:44;;;;;;;1.80;0.47;;;;;;;;;;5025072;28;58424;-62
2023/05/18 12:38:10;;;;;;;1.17;0.40;;;;;;;;;;5025210;28;58233;-60
2023/05/18 12:40:42;;;;;;;1.27;0.80;;;;;;;;;;5023581;28;58957;-66
2023/05/18 12:43:08;;;;;;;1.35;0.55;;;;;;;;;;5024134;28;58229;-60
2023/05/18 12:45:33;;;;;;;1.33;0.43;;;;;;;;;;5022806;28;58505;-59
2023/05/18 12:48:05;;;;;;;1.20;0.83;;;;;;;;;;5023761;28;58767;-60
2023/05/18 12:50:30;;;;;;;1.65;0.82;;;;;;;;;;5024396;28;58400;-59
2023/05/18 12:52:55;;;;;;;0.60;0.40;;;;;;;;;;5014359;28;58647;-58
2023/05/18 12:55:21;;;;;;;2.40;1.27;;;;;;;;;;5022687;28;58464;-58
2023/05/18 12:58:01;;;;;;;3.92;0.98;;;;;;;;;;5022528;28;58393;-59
2023/05/18 13:00:31;;;;;;;1.50;0.82;;;;;;;;;;5020439;28;59289;-61
2023/05/18 13:03:03;;;;;;;4.93;1.00;;;;;;;;;;5022266;28;59130;-61
2023/05/18 13:05:28;;;;;;;0.60;0.60;;;;;;;;;;5022622;28;58783;-60
2023/05/18 13:07:54;;;;;;;2.87;0.90;;;;;;;;;;5022585;28;58455;-61
2023/05/18 13:10:19;;;;;;;2.92;0.77;;;;;;;;;;5021884;28;58745;-61
2023/05/18 13:12:47;;;;;;;4.13;0.97;;;;;;;;;;5021669;28;59036;-59
2023/05/18 13:15:13;;;;;;;7.17;1.20;;;;;;;;;;5022344;28;58454;-60
2023/05/18 13:17:46;;;;;;;7.50;1.30;;;;;;;;;;5020346;28;58299;-60
2023/05/18 13:20:13;;;;;;;2.60;0.63;;;;;;;;;;5023987;28;58542;-59
2023/05/18 13:22:38;;;;;;;6.82;1.17;;;;;;;;;;5015289;28;58745;-60
2023/05/18 13:25:04;;;;;;;7.27;2.27;;;;;;;;;;5020455;28;58772;-59
2023/05/18 13:27:29;;;;;;;2.97;0.95;;;;;;;;;;5021226;28;58253;-64
2023/05/18 13:29:57;;;;;;;2.03;1.17;;;;;;;;;;5019442;28;58538;-59
2023/05/18 13:32:22;;;;;;;2.83;0.90;;;;;;;;;;5023048;28;59874;-59
2023/05/18 13:34:47;;;;;;;4.28;0.90;;;;;;;;;;5010229;28;58766;-59
2023/05/18 13:37:13;;;;;;;2.55;0.60;;;;;;;;;;5022246;28;58844;-60
2023/05/18 13:39:38;;;;;;;1.30;0.70;;;;;;;;;;5018726;28;58919;-60
2023/05/18 13:42:03;;;;;;;3.00;1.17;;;;;;;;;;5023698;28;58719;-60
2023/05/18 13:44:28;;;;;;;1.03;0.40;;;;;;;;;;5019411;28;59158;-58
2023/05/18 13:46:53;;;;;;;2.07;0.70;;;;;;;;;;5022638;28;58407;-59
2023/05/18 13:49:18;;;;;;;2.97;1.17;;;;;;;;;;5022850;28;58408;-61
2023/05/18 13:51:43;;;;;;;7.70;1.58;;;;;;;;;;5024442;28;59078;-58
2023/05/18 13:54:09;;;;;;;1.13;0.70;;;;;;;;;;5024636;28;58333;-59
2023/05/18 13:56:34;;;;;;;6.07;0.93;;;;;;;;;;5026496;28;58621;-60
2023/05/18 13:58:59;;;;;;;1.63;1.07;;;;;;;;;;5025080;28;58713;-61
2023/05/18 14:01:24;;;;;;;3.50;1.73;;;;;;;;;;5018127;28;58891;-61
2023/05/18 14:03:49;;;;;;;2.13;0.90;;;;;;;;;;5023254;28;59586;-56
2023/05/18 14:06:14;;;;;;;3.75;1.50;;;;;;;;;;5020279;28;58661;-59
2023/05/18 14:08:39;;;;;;;2.78;0.90;;;;;;;;;;5024924;28;58913;-59
2023/05/18 14:11:05;;;;;;;1.70;0.90;;;;;;;;;;5021316;28;59073;-58
2023/05/18 14:13:30;;;;;;;2.67;0.80;;;;;;;;;;5017836;28;58405;-58
2023/05/18 14:15:55;;;;;;;2.93;0.93;;;;;;;;;;5024902;28;58784;-59
2023/05/18 14:18:20;;;;;;;2.93;1.27;;;;;;;;;;5024342;28;58345;-58
2023/05/18 14:20:47;;;;;;;1.70;1.00;;;;;;;;;;5023232;28;58356;-58
2023/05/18 14:23:12;;;;;;;3.47;0.93;;;;;;;;;;5019242;28;58820;-61
2023/05/18 14:25:37;;;;;;;2.08;0.70;;;;;;;;;;5022532;28;58661;-60
2023/05/18 14:28:03;;;;;;;3.23;1.50;;;;;;;;;;5025159;28;58865;-61
2023/05/18 14:30:28;;;;;;;4.33;0.97;;;;;;;;;;5025594;28;58955;-60
2023/05/18 14:32:53;;;;;;;1.23;0.70;;;;;;;;;;5025706;28;58863;-59
2023/05/18 14:35:18;;;;;;;1.77;1.20;;;;;;;;;;5016235;28;58691;-60
2023/05/18 14:37:43;;;;;;;1.77;0.80;;;;;;;;;;5023535;28;58375;-64